sensor_id;sensor_type;location;lat;lon;timestamp;temperature;humidity
49327;DHT22;35819;44.498;0.166;2022-09-29T00:08:11;15.20;99.90
49327;DHT22;35819;44.498;0.166;2022-09-29T00:10:41;15.20;99.90
49327;DHT22;35819;44.498;0.166;2022-09-29T00:13:18;15.20;99.90
49327;DHT22;35819;44.498;0.166;2022-09-29T00:16:04;15.20;99.90
49327;DHT22;35819;44.498;0.166;2022-09-29T00:18:34;15.20;99.90
49327;DHT22;35819;44.498;0.166;2022-09-29T00:21:15;15.20;99.90
49327;DHT22;35819;44.498;0.166;2022-09-29T00:24:02;15.20;99.90
49327;DHT22;35819;44.498;0.166;2022-09-29T00:36:21;15.20;99.90
49327;DHT22;35819;44.498;0.166;2022-09-29T00:38:49;15.20;99.90
49327;DHT22;35819;44.498;0.166;2022-09-29T00:41:21;15.20;99.90
49327;DHT22;35819;44.498;0.166;2022-09-29T00:44:02;15.10;99.90
49327;DHT22;35819;44.498;0.166;2022-09-29T00:46:51;15.10;99.90
49327;DHT22;35819;44.498;0.166;2022-09-29T00:52:47;15.10;99.90
49327;DHT22;35819;44.498;0.166;2022-09-29T01:05:43;15.00;99.90
49327;DHT22;35819;44.498;0.166;2022-09-29T01:08:35;15.00;99.90
49327;DHT22;35819;44.498;0.166;2022-09-29T01:11:20;15.00;99.90
49327;DHT22;35819;44.498;0.166;2022-09-29T01:13:48;15.00;99.90
49327;DHT22;35819;44.498;0.166;2022-09-29T01:16:17;14.90;99.90
49327;DHT22;35819;44.498;0.166;2022-09-29T01:19:06;14.90;99.90
49327;DHT22;35819;44.498;0.166;2022-09-29T01:53:06;14.60;99.90
49327;DHT22;35819;44.498;0.166;2022-09-29T01:56:37;14.50;99.90
49327;DHT22;35819;44.498;0.166;2022-09-29T02:03:04;14.50;99.90
49327;DHT22;35819;44.498;0.166;2022-09-29T02:06:24;14.50;99.90
49327;DHT22;35819;44.498;0.166;2022-09-29T02:09:52;14.60;99.90
49327;DHT22;35819;44.498;0.166;2022-09-29T02:16:18;14.50;99.90
49327;DHT22;35819;44.498;0.166;2022-09-29T02:19:57;14.50;99.90
49327;DHT22;35819;44.498;0.166;2022-09-29T02:23:02;14.50;99.90
49327;DHT22;35819;44.498;0.166;2022-09-29T02:26:00;14.50;99.90
49327;DHT22;35819;44.498;0.166;2022-09-29T02:29:35;14.50;99.90
49327;DHT22;35819;44.498;0.166;2022-09-29T02:33:16;14.50;99.90
49327;DHT22;35819;44.498;0.166;2022-09-29T03:13:53;14.40;99.90
49327;DHT22;35819;44.498;0.166;2022-09-29T03:17:42;14.30;99.90
49327;DHT22;35819;44.498;0.166;2022-09-29T03:21:07;14.30;99.90
49327;DHT22;35819;44.498;0.166;2022-09-29T03:24:19;14.20;99.90
49327;DHT22;35819;44.498;0.166;2022-09-29T03:27:41;14.20;99.90
49327;DHT22;35819;44.498;0.166;2022-09-29T03:30:45;14.20;99.90
49327;DHT22;35819;44.498;0.166;2022-09-29T03:45:51;14.20;99.90
49327;DHT22;35819;44.498;0.166;2022-09-29T03:49:09;14.20;99.90
49327;DHT22;35819;44.498;0.166;2022-09-29T03:52:06;14.20;99.90
49327;DHT22;35819;44.498;0.166;2022-09-29T03:55:04;14.20;99.90
49327;DHT22;35819;44.498;0.166;2022-09-29T03:57:55;14.20;99.90
49327;DHT22;35819;44.498;0.166;2022-09-29T04:00:48;14.20;99.90
49327;DHT22;35819;44.498;0.166;2022-09-29T04:03:39;14.20;99.90
49327;DHT22;35819;44.498;0.166;2022-09-29T04:06:10;14.20;99.90
49327;DHT22;35819;44.498;0.166;2022-09-29T04:08:38;14.20;99.90
49327;DHT22;35819;44.498;0.166;2022-09-29T04:11:14;14.20;99.90
49327;DHT22;35819;44.498;0.166;2022-09-29T04:41:02;14.10;99.90
49327;DHT22;35819;44.498;0.166;2022-09-29T04:44:14;14.10;99.90
49327;DHT22;35819;44.498;0.166;2022-09-29T04:46:50;14.00;99.90
49327;DHT22;35819;44.498;0.166;2022-09-29T04:50:15;14.00;99.90
49327;DHT22;35819;44.498;0.166;2022-09-29T04:53:49;14.00;99.90
49327;DHT22;35819;44.498;0.166;2022-09-29T04:56:52;13.90;99.90
49327;DHT22;35819;44.498;0.166;2022-09-29T04:59:47;13.90;99.90
49327;DHT22;35819;44.498;0.166;2022-09-29T05:02:51;13.90;99.90
49327;DHT22;35819;44.498;0.166;2022-09-29T05:06:15;13.90;99.90
49327;DHT22;35819;44.498;0.166;2022-09-29T05:09:29;13.90;99.90
49327;DHT22;35819;44.498;0.166;2022-09-29T05:12:34;13.90;99.90
49327;DHT22;35819;44.498;0.166;2022-09-29T05:15:27;13.80;99.90
49327;DHT22;35819;44.498;0.166;2022-09-29T05:18:30;13.80;99.90
49327;DHT22;35819;44.498;0.166;2022-09-29T05:21:16;13.80;99.90
49327;DHT22;35819;44.498;0.166;2022-09-29T05:39:39;13.80;99.90
49327;DHT22;35819;44.498;0.166;2022-09-29T05:42:32;13.80;99.90
49327;DHT22;35819;44.498;0.166;2022-09-29T06:16:06;14.00;99.90
49327;DHT22;35819;44.498;0.166;2022-09-29T06:26:34;14.20;99.90
49327;DHT22;35819;44.498;0.166;2022-09-29T06:32:56;14.20;99.90
49327;DHT22;35819;44.498;0.166;2022-09-29T06:35:50;14.30;99.90
49327;DHT22;35819;44.498;0.166;2022-09-29T06:49:12;14.30;99.90
49327;DHT22;35819;44.498;0.166;2022-09-29T06:52:04;14.30;99.90
49327;DHT22;35819;44.498;0.166;2022-09-29T06:55:09;14.40;99.90
49327;DHT22;35819;44.498;0.166;2022-09-29T07:12:19;14.80;99.90
49327;DHT22;35819;44.498;0.166;2022-09-29T07:14:53;14.90;99.90
49327;DHT22;35819;44.498;0.166;2022-09-29T07:23:38;15.10;99.90
49327;DHT22;35819;44.498;0.166;2022-09-29T07:26:05;15.20;99.90
49327;DHT22;35819;44.498;0.166;2022-09-29T07:28:31;15.20;99.90
49327;DHT22;35819;44.498;0.166;2022-09-29T07:30:59;15.30;99.90
49327;DHT22;35819;44.498;0.166;2022-09-29T07:41:04;15.50;99.90
49327;DHT22;35819;44.498;0.166;2022-09-29T07:43:30;15.50;99.90
49327;DHT22;35819;44.498;0.166;2022-09-29T07:45:56;15.60;99.90
49327;DHT22;35819;44.498;0.166;2022-09-29T07:48:22;15.80;99.90
49327;DHT22;35819;44.498;0.166;2022-09-29T07:50:48;15.90;99.90
49327;DHT22;35819;44.498;0.166;2022-09-29T07:53:13;16.10;99.90
49327;DHT22;35819;44.498;0.166;2022-09-29T07:55:39;16.20;99.90
49327;DHT22;35819;44.498;0.166;2022-09-29T07:58:05;16.40;99.90
49327;DHT22;35819;44.498;0.166;2022-09-29T08:00:32;16.50;99.90
49327;DHT22;35819;44.498;0.166;2022-09-29T08:03:00;16.60;99.90
49327;DHT22;35819;44.498;0.166;2022-09-29T08:05:27;16.70;99.90
49327;DHT22;35819;44.498;0.166;2022-09-29T08:07:53;16.70;99.90
49327;DHT22;35819;44.498;0.166;2022-09-29T08:10:19;16.80;99.90
49327;DHT22;35819;44.498;0.166;2022-09-29T08:12:45;16.80;99.90
49327;DHT22;35819;44.498;0.166;2022-09-29T08:15:11;16.80;99.90
49327;DHT22;35819;44.498;0.166;2022-09-29T08:17:36;16.80;99.90
49327;DHT22;35819;44.498;0.166;2022-09-29T08:20:02;16.90;99.90
49327;DHT22;35819;44.498;0.166;2022-09-29T08:22:28;16.90;99.90
49327;DHT22;35819;44.498;0.166;2022-09-29T08:24:53;17.00;99.90
49327;DHT22;35819;44.498;0.166;2022-09-29T08:27:19;17.20;99.90
49327;DHT22;35819;44.498;0.166;2022-09-29T08:29:45;17.30;99.90
49327;DHT22;35819;44.498;0.166;2022-09-29T08:32:11;17.30;99.90
49327;DHT22;35819;44.498;0.166;2022-09-29T08:34:37;17.40;99.90
49327;DHT22;35819;44.498;0.166;2022-09-29T08:37:03;17.40;99.90
49327;DHT22;35819;44.498;0.166;2022-09-29T08:39:29;17.40;99.90
49327;DHT22;35819;44.498;0.166;2022-09-29T08:42:14;17.50;99.90
49327;DHT22;35819;44.498;0.166;2022-09-29T08:44:54;17.60;99.90
49327;DHT22;35819;44.498;0.166;2022-09-29T08:47:33;17.60;99.90
49327;DHT22;35819;44.498;0.166;2022-09-29T08:50:11;17.70;99.90
49327;DHT22;35819;44.498;0.166;2022-09-29T08:52:40;17.80;99.90
49327;DHT22;35819;44.498;0.166;2022-09-29T08:57:54;17.90;99.90
49327;DHT22;35819;44.498;0.166;2022-09-29T09:00:27;18.00;99.90
49327;DHT22;35819;44.498;0.166;2022-09-29T09:03:12;18.10;99.90
49327;DHT22;35819;44.498;0.166;2022-09-29T09:09:01;18.30;99.90
49327;DHT22;35819;44.498;0.166;2022-09-29T09:16:36;18.30;99.90
49327;DHT22;35819;44.498;0.166;2022-09-29T09:24:58;18.60;99.90
49327;DHT22;35819;44.498;0.166;2022-09-29T09:27:40;18.90;99.90
49327;DHT22;35819;44.498;0.166;2022-09-29T09:30:15;19.20;99.90
49327;DHT22;35819;44.498;0.166;2022-09-29T09:32:52;19.80;99.90
49327;DHT22;35819;44.498;0.166;2022-09-29T09:35:31;20.60;99.70
49327;DHT22;35819;44.498;0.166;2022-09-29T09:38:03;21.10;97.90
49327;DHT22;35819;44.498;0.166;2022-09-29T09:40:40;21.10;97.60
49327;DHT22;35819;44.498;0.166;2022-09-29T09:43:13;20.90;97.20
49327;DHT22;35819;44.498;0.166;2022-09-29T09:45:51;20.80;97.30
49327;DHT22;35819;44.498;0.166;2022-09-29T09:48:34;21.10;97.30
49327;DHT22;35819;44.498;0.166;2022-09-29T09:53:49;21.60;96.00
49327;DHT22;35819;44.498;0.166;2022-09-29T09:59:20;21.50;95.70
49327;DHT22;35819;44.498;0.166;2022-09-29T10:01:48;21.50;95.60
49327;DHT22;35819;44.498;0.166;2022-09-29T10:04:14;22.80;94.90
49327;DHT22;35819;44.498;0.166;2022-09-29T10:06:41;24.80;91.90
49327;DHT22;35819;44.498;0.166;2022-09-29T10:09:14;26.10;86.40
49327;DHT22;35819;44.498;0.166;2022-09-29T10:11:42;26.50;84.70
49327;DHT22;35819;44.498;0.166;2022-09-29T10:14:18;26.40;82.00
49327;DHT22;35819;44.498;0.166;2022-09-29T10:16:50;25.40;83.30
49327;DHT22;35819;44.498;0.166;2022-09-29T10:19:50;24.30;85.30
49327;DHT22;35819;44.498;0.166;2022-09-29T10:22:12;23.60;87.80
49327;DHT22;35819;44.498;0.166;2022-09-29T10:24:38;23.30;87.50
49327;DHT22;35819;44.498;0.166;2022-09-29T10:27:04;23.00;87.70
49327;DHT22;35819;44.498;0.166;2022-09-29T10:32:08;21.80;90.10
49327;DHT22;35819;44.498;0.166;2022-09-29T10:34:40;21.40;90.80
49327;DHT22;35819;44.498;0.166;2022-09-29T10:37:33;21.50;90.70
49327;DHT22;35819;44.498;0.166;2022-09-29T10:42:37;20.70;91.60
49327;DHT22;35819;44.498;0.166;2022-09-29T10:47:32;19.80;93.00
49327;DHT22;35819;44.498;0.166;2022-09-29T10:50:11;19.50;93.70
49327;DHT22;35819;44.498;0.166;2022-09-29T10:52:49;19.30;94.40
49327;DHT22;35819;44.498;0.166;2022-09-29T10:55:25;19.30;94.40
49327;DHT22;35819;44.498;0.166;2022-09-29T10:57:54;19.20;94.70
49327;DHT22;35819;44.498;0.166;2022-09-29T11:00:32;19.10;95.30
49327;DHT22;35819;44.498;0.166;2022-09-29T11:03:07;19.10;95.70
49327;DHT22;35819;44.498;0.166;2022-09-29T11:05:52;19.00;96.20
49327;DHT22;35819;44.498;0.166;2022-09-29T11:08:19;19.00;96.50
49327;DHT22;35819;44.498;0.166;2022-09-29T11:16:03;18.90;97.10
49327;DHT22;35819;44.498;0.166;2022-09-29T11:18:35;18.90;97.40
49327;DHT22;35819;44.498;0.166;2022-09-29T11:24:17;18.80;98.40
49327;DHT22;35819;44.498;0.166;2022-09-29T11:26:52;18.70;99.10
49327;DHT22;35819;44.498;0.166;2022-09-29T11:29:56;18.50;99.50
49327;DHT22;35819;44.498;0.166;2022-09-29T11:40:49;18.50;99.90
49327;DHT22;35819;44.498;0.166;2022-09-29T11:51:53;18.70;99.80
49327;DHT22;35819;44.498;0.166;2022-09-29T12:00:06;18.50;99.90
49327;DHT22;35819;44.498;0.166;2022-09-29T12:03:02;18.40;99.90
49327;DHT22;35819;44.498;0.166;2022-09-29T12:11:18;18.20;99.90
49327;DHT22;35819;44.498;0.166;2022-09-29T12:13:55;18.10;99.90
49327;DHT22;35819;44.498;0.166;2022-09-29T12:16:27;18.00;99.90
49327;DHT22;35819;44.498;0.166;2022-09-29T12:18:59;17.90;99.90
49327;DHT22;35819;44.498;0.166;2022-09-29T12:21:41;17.70;99.90
49327;DHT22;35819;44.498;0.166;2022-09-29T12:24:14;17.60;99.90
49327;DHT22;35819;44.498;0.166;2022-09-29T12:26:43;17.40;99.90
49327;DHT22;35819;44.498;0.166;2022-09-29T12:35:37;16.90;99.90
49327;DHT22;35819;44.498;0.166;2022-09-29T12:38:19;16.80;99.90
49327;DHT22;35819;44.498;0.166;2022-09-29T12:41:20;16.60;99.90
49327;DHT22;35819;44.498;0.166;2022-09-29T12:44:13;16.50;99.90
49327;DHT22;35819;44.498;0.166;2022-09-29T12:46:45;16.40;99.90
49327;DHT22;35819;44.498;0.166;2022-09-29T12:51:50;16.20;99.90
49327;DHT22;35819;44.498;0.166;2022-09-29T12:54:42;16.20;99.90
49327;DHT22;35819;44.498;0.166;2022-09-29T12:57:16;16.20;99.90
49327;DHT22;35819;44.498;0.166;2022-09-29T13:02:40;16.10;99.90
49327;DHT22;35819;44.498;0.166;2022-09-29T13:16:58;17.10;99.90
49327;DHT22;35819;44.498;0.166;2022-09-29T13:27:51;17.30;99.90
49327;DHT22;35819;44.498;0.166;2022-09-29T13:30:26;17.30;99.90
49327;DHT22;35819;44.498;0.166;2022-09-29T13:33:09;17.30;99.90
49327;DHT22;35819;44.498;0.166;2022-09-29T13:35:43;17.30;99.90
49327;DHT22;35819;44.498;0.166;2022-09-29T13:38:18;17.40;99.90
49327;DHT22;35819;44.498;0.166;2022-09-29T13:46:33;17.40;99.90
49327;DHT22;35819;44.498;0.166;2022-09-29T13:51:57;17.30;99.90
49327;DHT22;35819;44.498;0.166;2022-09-29T13:54:35;17.20;99.90
49327;DHT22;35819;44.498;0.166;2022-09-29T13:59:44;17.00;99.90
49327;DHT22;35819;44.498;0.166;2022-09-29T14:04:55;16.90;99.90
49327;DHT22;35819;44.498;0.166;2022-09-29T14:16:08;16.60;99.90
49327;DHT22;35819;44.498;0.166;2022-09-29T14:21:14;16.50;99.90
49327;DHT22;35819;44.498;0.166;2022-09-29T14:23:58;16.40;99.90
49327;DHT22;35819;44.498;0.166;2022-09-29T14:26:47;16.40;99.90
49327;DHT22;35819;44.498;0.166;2022-09-29T14:29:19;16.40;99.90
49327;DHT22;35819;44.498;0.166;2022-09-29T14:31:49;16.30;99.90
49327;DHT22;35819;44.498;0.166;2022-09-29T14:34:16;16.30;99.90
49327;DHT22;35819;44.498;0.166;2022-09-29T14:36:44;16.20;99.90
49327;DHT22;35819;44.498;0.166;2022-09-29T14:39:14;16.00;99.90
49327;DHT22;35819;44.498;0.166;2022-09-29T14:41:42;15.90;99.90
49327;DHT22;35819;44.498;0.166;2022-09-29T14:44:40;15.70;99.90
49327;DHT22;35819;44.498;0.166;2022-09-29T14:47:34;15.70;99.90
49327;DHT22;35819;44.498;0.166;2022-09-29T14:50:25;15.80;99.90
49327;DHT22;35819;44.498;0.166;2022-09-29T14:55:51;15.90;99.90
49327;DHT22;35819;44.498;0.166;2022-09-29T15:02:12;16.10;99.90
49327;DHT22;35819;44.498;0.166;2022-09-29T15:04:45;16.10;99.90
49327;DHT22;35819;44.498;0.166;2022-09-29T15:07:17;16.10;99.90
49327;DHT22;35819;44.498;0.166;2022-09-29T15:09:51;16.10;99.90
49327;DHT22;35819;44.498;0.166;2022-09-29T15:12:31;16.20;99.90
49327;DHT22;35819;44.498;0.166;2022-09-29T15:14:59;16.20;99.90
49327;DHT22;35819;44.498;0.166;2022-09-29T15:17:53;16.20;99.90
49327;DHT22;35819;44.498;0.166;2022-09-29T15:20:42;16.20;99.90
49327;DHT22;35819;44.498;0.166;2022-09-29T15:23:45;16.10;99.90
49327;DHT22;35819;44.498;0.166;2022-09-29T15:26:20;16.00;99.90
49327;DHT22;35819;44.498;0.166;2022-09-29T15:28:49;15.90;99.90
49327;DHT22;35819;44.498;0.166;2022-09-29T15:31:18;15.80;99.90
49327;DHT22;35819;44.498;0.166;2022-09-29T15:34:20;15.70;99.90
49327;DHT22;35819;44.498;0.166;2022-09-29T15:37:29;15.60;99.90
49327;DHT22;35819;44.498;0.166;2022-09-29T15:40:42;15.50;99.90
49327;DHT22;35819;44.498;0.166;2022-09-29T15:43:50;15.40;99.90
49327;DHT22;35819;44.498;0.166;2022-09-29T15:49:14;15.10;99.90
49327;DHT22;35819;44.498;0.166;2022-09-29T15:52:12;15.00;99.90
49327;DHT22;35819;44.498;0.166;2022-09-29T15:54:42;14.90;99.90
49327;DHT22;35819;44.498;0.166;2022-09-29T16:05:33;14.80;99.90
49327;DHT22;35819;44.498;0.166;2022-09-29T16:08:06;14.70;99.90
49327;DHT22;35819;44.498;0.166;2022-09-29T16:11:00;14.70;99.90
49327;DHT22;35819;44.498;0.166;2022-09-29T16:13:42;14.70;99.90
49327;DHT22;35819;44.498;0.166;2022-09-29T16:17:04;14.60;99.90
49327;DHT22;35819;44.498;0.166;2022-09-29T16:19:42;14.60;99.90
49327;DHT22;35819;44.498;0.166;2022-09-29T16:22:26;14.50;99.90
49327;DHT22;35819;44.498;0.166;2022-09-29T16:27:53;14.50;99.90
49327;DHT22;35819;44.498;0.166;2022-09-29T16:31:09;14.40;99.90
49327;DHT22;35819;44.498;0.166;2022-09-29T16:37:25;14.30;99.90
49327;DHT22;35819;44.498;0.166;2022-09-29T16:40:19;14.40;99.90
49327;DHT22;35819;44.498;0.166;2022-09-29T16:42:51;14.40;99.90
49327;DHT22;35819;44.498;0.166;2022-09-29T16:45:40;14.40;99.90
49327;DHT22;35819;44.498;0.166;2022-09-29T16:48:10;14.40;99.90
49327;DHT22;35819;44.498;0.166;2022-09-29T16:50:39;14.50;99.90
49327;DHT22;35819;44.498;0.166;2022-09-29T16:53:31;14.50;99.90
49327;DHT22;35819;44.498;0.166;2022-09-29T16:56:30;14.60;99.90
49327;DHT22;35819;44.498;0.166;2022-09-29T16:59:15;14.60;99.90
49327;DHT22;35819;44.498;0.166;2022-09-29T17:01:44;14.60;99.90
49327;DHT22;35819;44.498;0.166;2022-09-29T17:04:14;14.60;99.90
49327;DHT22;35819;44.498;0.166;2022-09-29T17:06:44;14.70;99.90
49327;DHT22;35819;44.498;0.166;2022-09-29T17:09:17;14.70;99.90
49327;DHT22;35819;44.498;0.166;2022-09-29T17:11:46;14.70;99.90
49327;DHT22;35819;44.498;0.166;2022-09-29T17:14:14;14.70;99.90
49327;DHT22;35819;44.498;0.166;2022-09-29T17:16:42;14.80;99.90
49327;DHT22;35819;44.498;0.166;2022-09-29T17:19:12;14.90;99.90
49327;DHT22;35819;44.498;0.166;2022-09-29T17:21:40;14.90;99.90
49327;DHT22;35819;44.498;0.166;2022-09-29T17:24:06;15.00;99.90
49327;DHT22;35819;44.498;0.166;2022-09-29T17:26:41;15.00;99.90
49327;DHT22;35819;44.498;0.166;2022-09-29T17:29:28;15.10;99.90
49327;DHT22;35819;44.498;0.166;2022-09-29T17:32:10;15.20;99.90
49327;DHT22;35819;44.498;0.166;2022-09-29T17:34:46;15.20;99.90
49327;DHT22;35819;44.498;0.166;2022-09-29T17:37:14;15.10;99.90
49327;DHT22;35819;44.498;0.166;2022-09-29T17:39:55;15.00;99.90
49327;DHT22;35819;44.498;0.166;2022-09-29T17:42:25;14.80;99.90
49327;DHT22;35819;44.498;0.166;2022-09-29T17:45:05;14.70;99.90
49327;DHT22;35819;44.498;0.166;2022-09-29T17:48:07;14.50;99.90
